Terminal Aerodrome Forecast
Issued by NWS

Home | Current Version | Previous Version | Graphics & Text | Print | Product List | Glossary On
Versions: 1 2 3 4 5 6 7 8 9 10 11 12 13 14 15 16
000
FTUS43 KICT 231500 AAB
TAFHUT
TAF AMD
KHUT 231513Z 2315/2412 06013G19KT P6SM SCT015
     FM231700 05008KT P6SM SCT250
     FM240000 VRB05KT P6SM SCT250=

USA.gov is the U.S. government's official web portal to all federal, state and local government web resources and services.